Terminal Aerodrome Forecast
Issued by NWS La Crosse, WI

Home | Current Version | Previous Version | Text Only | Print | Product List | Glossary On
Versions: 1 2 3 4 5 6 7 8 9 10 11 12 13 14 15 16 17 18 19 20 21 22 23 24
000
FTUS43 KARX 231734
TAFRST
TAF
KRST 231734Z 2318/2418 21008KT 5SM BR BKN004
     FM232000 25007KT P6SM SCT015
     FM240000 19006KT P6SM SKC
     FM240500 19007KT 4SM BR SKC
     FM240900 17009KT 2SM BR SKC
     FM241400 17010KT P6SM SKC=

USA.gov is the U.S. government's official web portal to all federal, state and local government web resources and services.